sensor_id;sensor_type;location;lat;lon;timestamp;P1;durP1;ratioP1;P2;durP2;ratioP2
3795;SDS011;1913;50.660;7.834;2023-11-18T00:01:45;97.43;;;19.13;;
3795;SDS011;1913;50.660;7.834;2023-11-18T00:04:11;88.90;;;19.47;;
3795;SDS011;1913;50.660;7.834;2023-11-18T00:06:44;66.20;;;17.37;;
3795;SDS011;1913;50.660;7.834;2023-11-18T00:09:10;170.57;;;23.17;;
3795;SDS011;1913;50.660;7.834;2023-11-18T00:11:38;99.20;;;19.17;;
3795;SDS011;1913;50.660;7.834;2023-11-18T00:14:03;50.20;;;15.53;;
3795;SDS011;1913;50.660;7.834;2023-11-18T00:16:29;50.23;;;14.67;;
3795;SDS011;1913;50.660;7.834;2023-11-18T00:18:55;33.73;;;12.37;;
3795;SDS011;1913;50.660;7.834;2023-11-18T00:21:20;42.47;;;12.60;;
3795;SDS011;1913;50.660;7.834;2023-11-18T00:23:45;39.83;;;14.83;;
3795;SDS011;1913;50.660;7.834;2023-11-18T00:26:11;49.77;;;16.77;;
3795;SDS011;1913;50.660;7.834;2023-11-18T00:28:38;39.10;;;13.80;;
3795;SDS011;1913;50.660;7.834;2023-11-18T00:31:03;50.27;;;14.77;;
3795;SDS011;1913;50.660;7.834;2023-11-18T00:33:29;43.10;;;13.93;;
3795;SDS011;1913;50.660;7.834;2023-11-18T00:35:55;32.90;;;13.07;;
3795;SDS011;1913;50.660;7.834;2023-11-18T00:38:20;54.10;;;15.97;;
3795;SDS011;1913;50.660;7.834;2023-11-18T00:40:45;52.17;;;14.50;;
3795;SDS011;1913;50.660;7.834;2023-11-18T00:43:11;48.87;;;14.60;;
3795;SDS011;1913;50.660;7.834;2023-11-18T00:45:36;44.63;;;15.13;;
3795;SDS011;1913;50.660;7.834;2023-11-18T00:48:01;52.03;;;14.30;;
3795;SDS011;1913;50.660;7.834;2023-11-18T00:50:27;39.00;;;13.10;;
3795;SDS011;1913;50.660;7.834;2023-11-18T00:52:52;43.93;;;13.67;;
3795;SDS011;1913;50.660;7.834;2023-11-18T00:55:17;42.10;;;14.10;;
3795;SDS011;1913;50.660;7.834;2023-11-18T00:57:43;38.93;;;13.90;;
3795;SDS011;1913;50.660;7.834;2023-11-18T01:00:11;45.77;;;14.80;;
3795;SDS011;1913;50.660;7.834;2023-11-18T01:02:47;40.00;;;12.00;;
3795;SDS011;1913;50.660;7.834;2023-11-18T01:05:14;41.23;;;13.87;;
3795;SDS011;1913;50.660;7.834;2023-11-18T01:07:40;47.53;;;14.73;;
3795;SDS011;1913;50.660;7.834;2023-11-18T01:10:06;36.27;;;13.77;;
3795;SDS011;1913;50.660;7.834;2023-11-18T01:12:32;38.87;;;12.23;;
3795;SDS011;1913;50.660;7.834;2023-11-18T01:14:58;39.10;;;14.50;;
3795;SDS011;1913;50.660;7.834;2023-11-18T01:17:23;38.50;;;13.10;;
3795;SDS011;1913;50.660;7.834;2023-11-18T01:19:49;35.07;;;12.37;;
3795;SDS011;1913;50.660;7.834;2023-11-18T01:22:14;30.97;;;12.87;;
3795;SDS011;1913;50.660;7.834;2023-11-18T01:24:40;41.90;;;14.50;;
3795;SDS011;1913;50.660;7.834;2023-11-18T01:27:06;45.13;;;13.13;;
3795;SDS011;1913;50.660;7.834;2023-11-18T01:29:34;38.60;;;13.27;;
3795;SDS011;1913;50.660;7.834;2023-11-18T01:32:00;36.17;;;13.07;;
3795;SDS011;1913;50.660;7.834;2023-11-18T01:34:25;45.77;;;14.60;;
3795;SDS011;1913;50.660;7.834;2023-11-18T01:36:53;38.40;;;15.53;;
3795;SDS011;1913;50.660;7.834;2023-11-18T01:39:18;39.60;;;13.10;;
3795;SDS011;1913;50.660;7.834;2023-11-18T01:41:44;37.27;;;14.80;;
3795;SDS011;1913;50.660;7.834;2023-11-18T01:44:10;37.13;;;13.53;;
3795;SDS011;1913;50.660;7.834;2023-11-18T01:46:35;46.50;;;15.50;;
3795;SDS011;1913;50.660;7.834;2023-11-18T01:49:02;34.57;;;13.53;;
3795;SDS011;1913;50.660;7.834;2023-11-18T01:51:29;38.23;;;14.47;;
3795;SDS011;1913;50.660;7.834;2023-11-18T01:53:55;51.03;;;18.93;;
3795;SDS011;1913;50.660;7.834;2023-11-18T01:56:24;48.90;;;20.37;;
3795;SDS011;1913;50.660;7.834;2023-11-18T01:58:51;53.37;;;19.67;;
3795;SDS011;1913;50.660;7.834;2023-11-18T02:01:18;49.60;;;19.63;;
3795;SDS011;1913;50.660;7.834;2023-11-18T02:03:43;53.67;;;20.27;;
3795;SDS011;1913;50.660;7.834;2023-11-18T02:06:09;54.70;;;20.83;;
3795;SDS011;1913;50.660;7.834;2023-11-18T02:08:35;61.40;;;21.73;;
3795;SDS011;1913;50.660;7.834;2023-11-18T02:11:26;71.50;;;22.60;;
3795;SDS011;1913;50.660;7.834;2023-11-18T02:13:56;55.50;;;21.93;;
3795;SDS011;1913;50.660;7.834;2023-11-18T02:16:27;54.97;;;23.10;;
3795;SDS011;1913;50.660;7.834;2023-11-18T02:18:53;55.43;;;21.40;;
3795;SDS011;1913;50.660;7.834;2023-11-18T02:21:19;66.63;;;22.30;;
3795;SDS011;1913;50.660;7.834;2023-11-18T02:23:47;57.03;;;22.43;;
3795;SDS011;1913;50.660;7.834;2023-11-18T02:26:20;56.70;;;20.60;;
3795;SDS011;1913;50.660;7.834;2023-11-18T02:28:46;47.10;;;18.17;;
3795;SDS011;1913;50.660;7.834;2023-11-18T02:31:15;54.23;;;21.73;;
3795;SDS011;1913;50.660;7.834;2023-11-18T02:33:54;62.97;;;22.90;;
3795;SDS011;1913;50.660;7.834;2023-11-18T02:36:36;59.87;;;21.57;;
3795;SDS011;1913;50.660;7.834;2023-11-18T02:39:06;49.37;;;19.27;;
3795;SDS011;1913;50.660;7.834;2023-11-18T02:41:36;58.00;;;19.83;;
3795;SDS011;1913;50.660;7.834;2023-11-18T02:44:04;59.60;;;22.87;;
3795;SDS011;1913;50.660;7.834;2023-11-18T02:46:35;55.13;;;21.93;;
3795;SDS011;1913;50.660;7.834;2023-11-18T02:49:02;66.33;;;23.90;;
3795;SDS011;1913;50.660;7.834;2023-11-18T02:51:28;54.13;;;20.77;;
3795;SDS011;1913;50.660;7.834;2023-11-18T02:53:56;60.00;;;22.83;;
3795;SDS011;1913;50.660;7.834;2023-11-18T02:56:21;54.50;;;21.10;;
3795;SDS011;1913;50.660;7.834;2023-11-18T02:58:47;60.43;;;23.07;;
3795;SDS011;1913;50.660;7.834;2023-11-18T03:01:12;57.27;;;22.70;;
3795;SDS011;1913;50.660;7.834;2023-11-18T03:03:38;52.50;;;21.20;;
3795;SDS011;1913;50.660;7.834;2023-11-18T03:06:03;56.20;;;20.97;;
3795;SDS011;1913;50.660;7.834;2023-11-18T03:08:31;51.80;;;20.77;;
3795;SDS011;1913;50.660;7.834;2023-11-18T03:10:56;49.40;;;19.87;;
3795;SDS011;1913;50.660;7.834;2023-11-18T03:13:23;62.30;;;24.50;;
3795;SDS011;1913;50.660;7.834;2023-11-18T03:15:49;57.07;;;21.40;;
3795;SDS011;1913;50.660;7.834;2023-11-18T03:18:15;62.80;;;22.83;;
3795;SDS011;1913;50.660;7.834;2023-11-18T03:20:40;62.10;;;22.80;;
3795;SDS011;1913;50.660;7.834;2023-11-18T03:23:06;70.03;;;24.20;;
3795;SDS011;1913;50.660;7.834;2023-11-18T03:25:34;54.50;;;22.80;;
3795;SDS011;1913;50.660;7.834;2023-11-18T03:28:00;51.90;;;20.40;;
3795;SDS011;1913;50.660;7.834;2023-11-18T03:30:25;63.73;;;22.57;;
3795;SDS011;1913;50.660;7.834;2023-11-18T03:32:50;54.03;;;22.53;;
3795;SDS011;1913;50.660;7.834;2023-11-18T03:35:16;64.17;;;22.17;;
3795;SDS011;1913;50.660;7.834;2023-11-18T03:37:41;45.87;;;19.40;;
3795;SDS011;1913;50.660;7.834;2023-11-18T03:40:08;57.60;;;21.63;;
3795;SDS011;1913;50.660;7.834;2023-11-18T03:42:34;57.90;;;21.10;;
3795;SDS011;1913;50.660;7.834;2023-11-18T03:45:00;47.57;;;19.23;;
3795;SDS011;1913;50.660;7.834;2023-11-18T03:47:26;50.30;;;19.20;;
3795;SDS011;1913;50.660;7.834;2023-11-18T03:49:51;45.17;;;19.00;;
3795;SDS011;1913;50.660;7.834;2023-11-18T03:52:19;50.47;;;19.83;;
3795;SDS011;1913;50.660;7.834;2023-11-18T03:54:45;49.27;;;20.20;;
3795;SDS011;1913;50.660;7.834;2023-11-18T03:57:10;61.70;;;21.07;;
3795;SDS011;1913;50.660;7.834;2023-11-18T03:59:35;46.43;;;19.87;;
3795;SDS011;1913;50.660;7.834;2023-11-18T04:02:01;53.90;;;21.70;;
3795;SDS011;1913;50.660;7.834;2023-11-18T04:04:26;51.97;;;21.30;;
3795;SDS011;1913;50.660;7.834;2023-11-18T04:06:52;47.93;;;21.43;;
3795;SDS011;1913;50.660;7.834;2023-11-18T04:09:17;57.93;;;22.60;;
3795;SDS011;1913;50.660;7.834;2023-11-18T04:11:43;48.77;;;21.33;;
3795;SDS011;1913;50.660;7.834;2023-11-18T04:14:10;54.17;;;20.83;;
3795;SDS011;1913;50.660;7.834;2023-11-18T04:16:36;50.97;;;20.87;;
3795;SDS011;1913;50.660;7.834;2023-11-18T04:19:02;38.97;;;17.20;;
3795;SDS011;1913;50.660;7.834;2023-11-18T04:21:28;41.87;;;17.20;;
3795;SDS011;1913;50.660;7.834;2023-11-18T04:23:53;37.60;;;16.67;;
3795;SDS011;1913;50.660;7.834;2023-11-18T04:26:20;41.70;;;16.20;;
3795;SDS011;1913;50.660;7.834;2023-11-18T04:28:45;41.40;;;18.57;;
3795;SDS011;1913;50.660;7.834;2023-11-18T04:31:10;43.00;;;17.80;;
3795;SDS011;1913;50.660;7.834;2023-11-18T04:33:36;47.13;;;20.40;;
3795;SDS011;1913;50.660;7.834;2023-11-18T04:36:01;44.57;;;18.53;;
3795;SDS011;1913;50.660;7.834;2023-11-18T04:38:27;47.50;;;19.27;;
3795;SDS011;1913;50.660;7.834;2023-11-18T04:40:53;40.93;;;18.83;;
3795;SDS011;1913;50.660;7.834;2023-11-18T04:43:19;41.47;;;19.30;;
3795;SDS011;1913;50.660;7.834;2023-11-18T04:45:45;40.57;;;18.40;;
3795;SDS011;1913;50.660;7.834;2023-11-18T04:48:10;45.83;;;20.23;;
3795;SDS011;1913;50.660;7.834;2023-11-18T04:50:38;42.90;;;18.93;;
3795;SDS011;1913;50.660;7.834;2023-11-18T04:53:04;42.17;;;19.27;;
3795;SDS011;1913;50.660;7.834;2023-11-18T04:55:33;48.03;;;19.37;;
3795;SDS011;1913;50.660;7.834;2023-11-18T04:57:58;46.03;;;19.63;;
3795;SDS011;1913;50.660;7.834;2023-11-18T05:00:24;46.03;;;18.87;;
3795;SDS011;1913;50.660;7.834;2023-11-18T05:02:49;46.60;;;19.53;;
3795;SDS011;1913;50.660;7.834;2023-11-18T05:05:15;46.20;;;20.03;;
3795;SDS011;1913;50.660;7.834;2023-11-18T05:07:42;57.87;;;22.87;;
3795;SDS011;1913;50.660;7.834;2023-11-18T05:10:08;56.97;;;20.27;;
3795;SDS011;1913;50.660;7.834;2023-11-18T05:12:35;54.20;;;21.17;;
3795;SDS011;1913;50.660;7.834;2023-11-18T05:15:01;55.03;;;20.80;;
3795;SDS011;1913;50.660;7.834;2023-11-18T05:17:28;58.50;;;21.90;;
3795;SDS011;1913;50.660;7.834;2023-11-18T05:19:55;51.33;;;20.03;;
3795;SDS011;1913;50.660;7.834;2023-11-18T05:22:20;64.47;;;22.13;;
3795;SDS011;1913;50.660;7.834;2023-11-18T05:24:46;60.07;;;19.33;;
3795;SDS011;1913;50.660;7.834;2023-11-18T05:27:11;62.70;;;19.70;;
3795;SDS011;1913;50.660;7.834;2023-11-18T05:29:36;61.47;;;20.53;;
3795;SDS011;1913;50.660;7.834;2023-11-18T05:32:02;56.67;;;18.60;;
3795;SDS011;1913;50.660;7.834;2023-11-18T05:34:27;63.50;;;21.20;;
3795;SDS011;1913;50.660;7.834;2023-11-18T05:36:53;61.77;;;22.03;;
3795;SDS011;1913;50.660;7.834;2023-11-18T05:39:22;52.47;;;20.93;;
3795;SDS011;1913;50.660;7.834;2023-11-18T05:41:49;64.27;;;21.53;;
3795;SDS011;1913;50.660;7.834;2023-11-18T05:44:16;60.70;;;21.47;;
3795;SDS011;1913;50.660;7.834;2023-11-18T05:46:45;67.80;;;21.97;;
3795;SDS011;1913;50.660;7.834;2023-11-18T05:49:16;57.37;;;20.50;;
3795;SDS011;1913;50.660;7.834;2023-11-18T05:51:42;57.03;;;19.80;;
3795;SDS011;1913;50.660;7.834;2023-11-18T05:54:07;50.90;;;19.80;;
3795;SDS011;1913;50.660;7.834;2023-11-18T05:56:32;56.77;;;18.47;;
3795;SDS011;1913;50.660;7.834;2023-11-18T05:58:58;72.33;;;21.03;;
3795;SDS011;1913;50.660;7.834;2023-11-18T06:01:23;44.43;;;17.10;;
3795;SDS011;1913;50.660;7.834;2023-11-18T06:03:52;56.10;;;19.23;;
3795;SDS011;1913;50.660;7.834;2023-11-18T06:06:18;66.47;;;18.83;;
3795;SDS011;1913;50.660;7.834;2023-11-18T06:08:44;50.00;;;18.03;;
3795;SDS011;1913;50.660;7.834;2023-11-18T06:11:10;56.20;;;18.67;;
3795;SDS011;1913;50.660;7.834;2023-11-18T06:13:42;78.60;;;20.40;;
3795;SDS011;1913;50.660;7.834;2023-11-18T06:16:18;100.80;;;19.83;;
3795;SDS011;1913;50.660;7.834;2023-11-18T06:18:52;85.60;;;19.40;;
3795;SDS011;1913;50.660;7.834;2023-11-18T06:21:19;174.17;;;23.97;;
3795;SDS011;1913;50.660;7.834;2023-11-18T06:23:49;126.20;;;22.37;;
3795;SDS011;1913;50.660;7.834;2023-11-18T06:26:15;130.50;;;22.60;;
3795;SDS011;1913;50.660;7.834;2023-11-18T06:28:43;68.00;;;15.77;;
3795;SDS011;1913;50.660;7.834;2023-11-18T06:31:09;94.90;;;18.73;;
3795;SDS011;1913;50.660;7.834;2023-11-18T06:33:42;95.80;;;19.93;;
3795;SDS011;1913;50.660;7.834;2023-11-18T06:38:48;80.00;;;18.90;;
3795;SDS011;1913;50.660;7.834;2023-11-18T06:41:15;75.03;;;19.43;;
3795;SDS011;1913;50.660;7.834;2023-11-18T06:43:43;73.70;;;20.50;;
3795;SDS011;1913;50.660;7.834;2023-11-18T06:46:30;51.60;;;17.40;;
3795;SDS011;1913;50.660;7.834;2023-11-18T06:48:59;73.50;;;18.70;;
3795;SDS011;1913;50.660;7.834;2023-11-18T06:51:30;54.87;;;17.63;;
3795;SDS011;1913;50.660;7.834;2023-11-18T06:53:58;60.83;;;17.93;;
3795;SDS011;1913;50.660;7.834;2023-11-18T06:56:23;67.17;;;17.87;;
3795;SDS011;1913;50.660;7.834;2023-11-18T06:58:49;50.77;;;17.67;;
3795;SDS011;1913;50.660;7.834;2023-11-18T07:01:15;55.43;;;18.60;;
3795;SDS011;1913;50.660;7.834;2023-11-18T07:03:41;53.07;;;17.40;;
3795;SDS011;1913;50.660;7.834;2023-11-18T07:06:07;50.37;;;18.33;;
3795;SDS011;1913;50.660;7.834;2023-11-18T07:08:34;35.47;;;15.37;;
3795;SDS011;1913;50.660;7.834;2023-11-18T07:11:00;43.30;;;15.27;;
3795;SDS011;1913;50.660;7.834;2023-11-18T07:13:26;42.87;;;17.37;;
3795;SDS011;1913;50.660;7.834;2023-11-18T07:15:52;46.00;;;15.47;;
3795;SDS011;1913;50.660;7.834;2023-11-18T07:18:19;40.40;;;16.00;;
3795;SDS011;1913;50.660;7.834;2023-11-18T07:20:47;39.03;;;15.60;;
3795;SDS011;1913;50.660;7.834;2023-11-18T07:23:14;34.63;;;14.87;;
3795;SDS011;1913;50.660;7.834;2023-11-18T07:25:39;32.70;;;14.73;;
3795;SDS011;1913;50.660;7.834;2023-11-18T07:28:05;33.23;;;14.80;;
3795;SDS011;1913;50.660;7.834;2023-11-18T07:30:33;30.70;;;13.30;;
3795;SDS011;1913;50.660;7.834;2023-11-18T07:33:00;31.40;;;14.00;;
3795;SDS011;1913;50.660;7.834;2023-11-18T07:35:26;26.27;;;13.90;;
3795;SDS011;1913;50.660;7.834;2023-11-18T07:37:52;26.37;;;12.27;;
3795;SDS011;1913;50.660;7.834;2023-11-18T07:40:18;39.00;;;13.70;;
3795;SDS011;1913;50.660;7.834;2023-11-18T07:42:53;29.20;;;12.97;;
3795;SDS011;1913;50.660;7.834;2023-11-18T07:45:21;32.83;;;14.00;;
3795;SDS011;1913;50.660;7.834;2023-11-18T07:47:48;33.43;;;13.93;;
3795;SDS011;1913;50.660;7.834;2023-11-18T07:50:16;33.00;;;13.77;;
3795;SDS011;1913;50.660;7.834;2023-11-18T07:52:42;30.60;;;13.03;;
3795;SDS011;1913;50.660;7.834;2023-11-18T07:55:07;35.47;;;13.40;;
3795;SDS011;1913;50.660;7.834;2023-11-18T07:57:38;32.43;;;11.70;;
3795;SDS011;1913;50.660;7.834;2023-11-18T08:00:03;30.00;;;12.20;;
3795;SDS011;1913;50.660;7.834;2023-11-18T08:02:34;26.83;;;10.90;;
3795;SDS011;1913;50.660;7.834;2023-11-18T08:05:01;23.47;;;12.00;;
3795;SDS011;1913;50.660;7.834;2023-11-18T08:07:54;20.27;;;9.90;;
3795;SDS011;1913;50.660;7.834;2023-11-18T08:10:19;22.30;;;11.17;;
3795;SDS011;1913;50.660;7.834;2023-11-18T08:12:47;20.17;;;9.90;;
3795;SDS011;1913;50.660;7.834;2023-11-18T08:15:12;20.30;;;9.77;;
3795;SDS011;1913;50.660;7.834;2023-11-18T08:17:38;23.33;;;9.80;;
3795;SDS011;1913;50.660;7.834;2023-11-18T08:20:04;19.30;;;9.17;;
3795;SDS011;1913;50.660;7.834;2023-11-18T08:22:39;20.73;;;9.60;;
3795;SDS011;1913;50.660;7.834;2023-11-18T08:25:12;22.27;;;9.47;;
3795;SDS011;1913;50.660;7.834;2023-11-18T08:27:38;20.03;;;8.80;;
3795;SDS011;1913;50.660;7.834;2023-11-18T08:30:07;20.27;;;9.20;;
3795;SDS011;1913;50.660;7.834;2023-11-18T08:32:40;20.43;;;9.27;;
3795;SDS011;1913;50.660;7.834;2023-11-18T08:35:09;19.13;;;8.83;;
3795;SDS011;1913;50.660;7.834;2023-11-18T08:37:37;21.93;;;9.60;;
3795;SDS011;1913;50.660;7.834;2023-11-18T08:40:03;20.17;;;9.63;;
3795;SDS011;1913;50.660;7.834;2023-11-18T08:42:31;16.20;;;8.17;;
3795;SDS011;1913;50.660;7.834;2023-11-18T08:44:58;17.50;;;8.90;;
3795;SDS011;1913;50.660;7.834;2023-11-18T08:47:25;16.77;;;8.33;;
3795;SDS011;1913;50.660;7.834;2023-11-18T08:49:50;16.37;;;7.93;;
3795;SDS011;1913;50.660;7.834;2023-11-18T08:52:15;14.13;;;7.70;;
3795;SDS011;1913;50.660;7.834;2023-11-18T08:54:43;12.97;;;7.47;;
3795;SDS011;1913;50.660;7.834;2023-11-18T08:57:28;12.13;;;6.60;;
3795;SDS011;1913;50.660;7.834;2023-11-18T09:00:13;11.07;;;6.20;;
3795;SDS011;1913;50.660;7.834;2023-11-18T09:03:00;12.63;;;7.17;;
3795;SDS011;1913;50.660;7.834;2023-11-18T09:05:26;9.80;;;6.23;;
3795;SDS011;1913;50.660;7.834;2023-11-18T09:07:57;10.70;;;5.90;;
3795;SDS011;1913;50.660;7.834;2023-11-18T09:10:27;9.53;;;5.80;;
3795;SDS011;1913;50.660;7.834;2023-11-18T09:12:53;11.80;;;6.03;;
3795;SDS011;1913;50.660;7.834;2023-11-18T09:15:19;8.50;;;5.73;;
3795;SDS011;1913;50.660;7.834;2023-11-18T09:17:50;13.20;;;6.97;;
3795;SDS011;1913;50.660;7.834;2023-11-18T09:20:15;10.63;;;6.67;;
3795;SDS011;1913;50.660;7.834;2023-11-18T09:22:50;11.50;;;6.70;;
3795;SDS011;1913;50.660;7.834;2023-11-18T09:25:20;12.07;;;7.13;;
3795;SDS011;1913;50.660;7.834;2023-11-18T09:27:47;10.00;;;6.37;;
3795;SDS011;1913;50.660;7.834;2023-11-18T09:30:13;14.47;;;7.50;;
3795;SDS011;1913;50.660;7.834;2023-11-18T09:32:41;11.50;;;7.43;;
3795;SDS011;1913;50.660;7.834;2023-11-18T09:35:07;13.87;;;7.87;;
3795;SDS011;1913;50.660;7.834;2023-11-18T09:37:34;11.97;;;7.37;;
3795;SDS011;1913;50.660;7.834;2023-11-18T09:40:00;11.97;;;7.00;;
3795;SDS011;1913;50.660;7.834;2023-11-18T09:42:42;15.37;;;8.10;;
3795;SDS011;1913;50.660;7.834;2023-11-18T09:45:09;12.30;;;7.43;;
3795;SDS011;1913;50.660;7.834;2023-11-18T09:47:45;14.03;;;8.20;;
3795;SDS011;1913;50.660;7.834;2023-11-18T09:50:16;14.73;;;8.10;;
3795;SDS011;1913;50.660;7.834;2023-11-18T09:52:48;13.30;;;7.60;;
3795;SDS011;1913;50.660;7.834;2023-11-18T09:55:28;15.60;;;8.33;;
3795;SDS011;1913;50.660;7.834;2023-11-18T09:58:06;14.43;;;8.40;;
3795;SDS011;1913;50.660;7.834;2023-11-18T10:00:39;15.27;;;8.27;;
3795;SDS011;1913;50.660;7.834;2023-11-18T10:03:08;14.37;;;7.90;;
3795;SDS011;1913;50.660;7.834;2023-11-18T10:05:37;12.23;;;7.43;;
3795;SDS011;1913;50.660;7.834;2023-11-18T10:08:05;15.30;;;8.10;;
3795;SDS011;1913;50.660;7.834;2023-11-18T10:10:31;11.97;;;7.80;;
3795;SDS011;1913;50.660;7.834;2023-11-18T10:13:03;13.07;;;7.77;;
3795;SDS011;1913;50.660;7.834;2023-11-18T10:15:33;12.60;;;7.17;;
3795;SDS011;1913;50.660;7.834;2023-11-18T10:17:59;12.10;;;6.83;;
3795;SDS011;1913;50.660;7.834;2023-11-18T10:23:07;8.80;;;6.60;;
3795;SDS011;1913;50.660;7.834;2023-11-18T10:25:45;11.03;;;6.00;;
3795;SDS011;1913;50.660;7.834;2023-11-18T10:28:24;11.03;;;6.97;;
3795;SDS011;1913;50.660;7.834;2023-11-18T10:30:56;11.43;;;7.73;;
3795;SDS011;1913;50.660;7.834;2023-11-18T10:33:32;12.03;;;6.50;;
3795;SDS011;1913;50.660;7.834;2023-11-18T10:36:02;13.37;;;7.20;;
3795;SDS011;1913;50.660;7.834;2023-11-18T10:38:32;13.50;;;7.77;;
3795;SDS011;1913;50.660;7.834;2023-11-18T10:41:08;12.23;;;7.50;;
3795;SDS011;1913;50.660;7.834;2023-11-18T10:43:34;15.83;;;9.00;;
3795;SDS011;1913;50.660;7.834;2023-11-18T10:46:07;13.97;;;8.80;;
3795;SDS011;1913;50.660;7.834;2023-11-18T10:51:19;14.13;;;8.20;;
3795;SDS011;1913;50.660;7.834;2023-11-18T10:53:49;14.33;;;7.77;;
3795;SDS011;1913;50.660;7.834;2023-11-18T10:56:23;12.53;;;7.47;;
3795;SDS011;1913;50.660;7.834;2023-11-18T10:58:53;14.47;;;7.30;;
3795;SDS011;1913;50.660;7.834;2023-11-18T11:01:30;14.30;;;7.50;;
3795;SDS011;1913;50.660;7.834;2023-11-18T11:03:59;11.80;;;7.67;;
3795;SDS011;1913;50.660;7.834;2023-11-18T11:06:29;14.10;;;8.07;;
3795;SDS011;1913;50.660;7.834;2023-11-18T11:08:58;12.87;;;7.80;;
3795;SDS011;1913;50.660;7.834;2023-11-18T11:11:24;12.70;;;6.60;;
3795;SDS011;1913;50.660;7.834;2023-11-18T11:13:54;15.17;;;7.73;;
3795;SDS011;1913;50.660;7.834;2023-11-18T11:16:22;14.10;;;8.10;;
3795;SDS011;1913;50.660;7.834;2023-11-18T11:18:55;14.27;;;7.80;;
3795;SDS011;1913;50.660;7.834;2023-11-18T11:21:24;11.97;;;7.37;;
3795;SDS011;1913;50.660;7.834;2023-11-18T11:24:04;17.07;;;8.20;;
3795;SDS011;1913;50.660;7.834;2023-11-18T11:29:24;13.50;;;7.47;;
3795;SDS011;1913;50.660;7.834;2023-11-18T11:32:00;15.20;;;8.47;;
3795;SDS011;1913;50.660;7.834;2023-11-18T11:34:38;13.00;;;7.50;;
3795;SDS011;1913;50.660;7.834;2023-11-18T11:37:10;17.50;;;8.03;;
3795;SDS011;1913;50.660;7.834;2023-11-18T11:39:36;15.57;;;9.03;;
3795;SDS011;1913;50.660;7.834;2023-11-18T11:42:03;19.73;;;10.10;;
3795;SDS011;1913;50.660;7.834;2023-11-18T11:44:34;16.63;;;8.57;;
3795;SDS011;1913;50.660;7.834;2023-11-18T11:47:07;20.33;;;10.03;;
3795;SDS011;1913;50.660;7.834;2023-11-18T11:49:37;17.50;;;9.37;;
3795;SDS011;1913;50.660;7.834;2023-11-18T11:52:10;15.63;;;9.17;;
3795;SDS011;1913;50.660;7.834;2023-11-18T11:55:05;16.80;;;9.23;;
3795;SDS011;1913;50.660;7.834;2023-11-18T11:57:41;14.83;;;8.97;;
3795;SDS011;1913;50.660;7.834;2023-11-18T12:00:10;18.63;;;9.43;;
3795;SDS011;1913;50.660;7.834;2023-11-18T12:02:51;22.77;;;11.17;;
3795;SDS011;1913;50.660;7.834;2023-11-18T12:05:20;17.00;;;9.57;;
3795;SDS011;1913;50.660;7.834;2023-11-18T12:07:50;19.60;;;10.10;;
3795;SDS011;1913;50.660;7.834;2023-11-18T12:10:17;19.27;;;10.27;;
3795;SDS011;1913;50.660;7.834;2023-11-18T12:12:45;21.53;;;9.30;;
3795;SDS011;1913;50.660;7.834;2023-11-18T12:15:11;15.67;;;8.73;;
3795;SDS011;1913;50.660;7.834;2023-11-18T12:20:38;17.70;;;9.40;;
3795;SDS011;1913;50.660;7.834;2023-11-18T12:23:07;16.30;;;9.53;;
3795;SDS011;1913;50.660;7.834;2023-11-18T12:25:39;19.63;;;10.77;;
3795;SDS011;1913;50.660;7.834;2023-11-18T12:28:09;18.90;;;9.30;;
3795;SDS011;1913;50.660;7.834;2023-11-18T12:30:39;16.73;;;9.07;;
3795;SDS011;1913;50.660;7.834;2023-11-18T12:33:16;13.73;;;8.40;;
3795;SDS011;1913;50.660;7.834;2023-11-18T12:43:48;12.60;;;6.30;;
3795;SDS011;1913;50.660;7.834;2023-11-18T12:48:49;9.60;;;6.00;;
3795;SDS011;1913;50.660;7.834;2023-11-18T12:51:16;11.40;;;6.57;;
3795;SDS011;1913;50.660;7.834;2023-11-18T12:53:48;11.17;;;6.17;;
3795;SDS011;1913;50.660;7.834;2023-11-18T12:56:16;14.27;;;7.67;;
3795;SDS011;1913;50.660;7.834;2023-11-18T12:58:44;13.97;;;8.37;;
3795;SDS011;1913;50.660;7.834;2023-11-18T13:01:10;14.73;;;8.17;;
3795;SDS011;1913;50.660;7.834;2023-11-18T13:03:39;17.60;;;8.37;;
3795;SDS011;1913;50.660;7.834;2023-11-18T13:06:07;12.50;;;8.00;;
3795;SDS011;1913;50.660;7.834;2023-11-18T13:08:37;16.23;;;9.00;;
3795;SDS011;1913;50.660;7.834;2023-11-18T13:11:03;16.20;;;9.70;;
3795;SDS011;1913;50.660;7.834;2023-11-18T13:13:32;16.30;;;9.60;;
3795;SDS011;1913;50.660;7.834;2023-11-18T13:15:59;18.67;;;8.93;;
3795;SDS011;1913;50.660;7.834;2023-11-18T13:18:24;18.10;;;10.20;;
3795;SDS011;1913;50.660;7.834;2023-11-18T13:20:57;19.50;;;9.47;;
3795;SDS011;1913;50.660;7.834;2023-11-18T13:23:26;18.37;;;10.30;;
3795;SDS011;1913;50.660;7.834;2023-11-18T13:25:55;18.20;;;10.53;;
3795;SDS011;1913;50.660;7.834;2023-11-18T13:28:25;19.67;;;11.00;;
3795;SDS011;1913;50.660;7.834;2023-11-18T13:30:50;21.30;;;11.73;;
3795;SDS011;1913;50.660;7.834;2023-11-18T13:33:16;25.67;;;12.57;;
3795;SDS011;1913;50.660;7.834;2023-11-18T13:35:42;24.67;;;12.20;;
3795;SDS011;1913;50.660;7.834;2023-11-18T13:38:09;25.00;;;12.50;;
3795;SDS011;1913;50.660;7.834;2023-11-18T13:40:42;26.50;;;14.37;;
3795;SDS011;1913;50.660;7.834;2023-11-18T13:43:08;29.47;;;14.30;;
3795;SDS011;1913;50.660;7.834;2023-11-18T13:45:34;25.67;;;13.73;;
3795;SDS011;1913;50.660;7.834;2023-11-18T13:47:59;24.07;;;13.30;;
3795;SDS011;1913;50.660;7.834;2023-11-18T13:50:26;26.97;;;13.83;;
3795;SDS011;1913;50.660;7.834;2023-11-18T13:52:51;22.43;;;13.23;;
3795;SDS011;1913;50.660;7.834;2023-11-18T13:55:18;27.57;;;14.13;;
3795;SDS011;1913;50.660;7.834;2023-11-18T13:57:55;27.33;;;13.60;;
3795;SDS011;1913;50.660;7.834;2023-11-18T14:00:23;36.20;;;14.27;;
3795;SDS011;1913;50.660;7.834;2023-11-18T14:02:52;25.00;;;13.10;;
3795;SDS011;1913;50.660;7.834;2023-11-18T14:05:19;27.70;;;13.93;;
3795;SDS011;1913;50.660;7.834;2023-11-18T14:07:51;23.93;;;12.40;;
3795;SDS011;1913;50.660;7.834;2023-11-18T14:10:20;26.30;;;13.00;;
3795;SDS011;1913;50.660;7.834;2023-11-18T14:13:04;20.00;;;11.30;;
3795;SDS011;1913;50.660;7.834;2023-11-18T14:15:40;17.90;;;11.10;;
3795;SDS011;1913;50.660;7.834;2023-11-18T14:18:08;17.77;;;10.43;;
3795;SDS011;1913;50.660;7.834;2023-11-18T14:20:34;21.70;;;10.73;;
3795;SDS011;1913;50.660;7.834;2023-11-18T14:23:00;16.67;;;10.50;;
3795;SDS011;1913;50.660;7.834;2023-11-18T14:25:28;16.43;;;9.27;;
3795;SDS011;1913;50.660;7.834;2023-11-18T14:27:57;13.77;;;9.00;;
3795;SDS011;1913;50.660;7.834;2023-11-18T14:30:23;24.20;;;10.77;;
3795;SDS011;1913;50.660;7.834;2023-11-18T14:32:51;14.90;;;8.90;;
3795;SDS011;1913;50.660;7.834;2023-11-18T14:35:17;16.37;;;8.50;;
3795;SDS011;1913;50.660;7.834;2023-11-18T14:37:45;19.17;;;8.83;;
3795;SDS011;1913;50.660;7.834;2023-11-18T14:40:15;13.50;;;8.83;;
3795;SDS011;1913;50.660;7.834;2023-11-18T14:42:46;15.80;;;9.30;;
3795;SDS011;1913;50.660;7.834;2023-11-18T14:45:16;18.13;;;8.97;;
3795;SDS011;1913;50.660;7.834;2023-11-18T14:47:42;17.57;;;9.70;;
3795;SDS011;1913;50.660;7.834;2023-11-18T14:50:13;17.37;;;8.50;;
3795;SDS011;1913;50.660;7.834;2023-11-18T14:52:47;18.23;;;8.60;;
3795;SDS011;1913;50.660;7.834;2023-11-18T14:55:14;21.30;;;8.80;;
3795;SDS011;1913;50.660;7.834;2023-11-18T14:57:42;13.40;;;7.30;;
3795;SDS011;1913;50.660;7.834;2023-11-18T15:00:09;16.23;;;8.57;;
3795;SDS011;1913;50.660;7.834;2023-11-18T15:02:47;11.63;;;7.57;;
3795;SDS011;1913;50.660;7.834;2023-11-18T15:05:17;9.33;;;5.83;;
3795;SDS011;1913;50.660;7.834;2023-11-18T15:07:46;12.00;;;6.70;;
3795;SDS011;1913;50.660;7.834;2023-11-18T15:10:22;6.33;;;4.80;;
3795;SDS011;1913;50.660;7.834;2023-11-18T15:12:49;7.10;;;4.77;;
3795;SDS011;1913;50.660;7.834;2023-11-18T15:15:26;8.83;;;5.00;;
3795;SDS011;1913;50.660;7.834;2023-11-18T15:20:28;7.47;;;5.50;;
3795;SDS011;1913;50.660;7.834;2023-11-18T15:22:54;10.00;;;5.87;;
3795;SDS011;1913;50.660;7.834;2023-11-18T15:25:19;10.77;;;5.87;;
3795;SDS011;1913;50.660;7.834;2023-11-18T15:27:45;8.17;;;6.07;;